createdAt,value
2019-01-31T00:02:27.364Z,1.50
2019-01-31T00:05:34.526Z,2.40
2019-01-31T00:08:45.983Z,3.97
2019-01-31T00:11:51.898Z,2.13
2019-01-31T00:14:59.037Z,2.33
2019-01-31T00:18:06.368Z,1.60
2019-01-31T00:21:13.483Z,1.30
2019-01-31T00:24:20.703Z,0.95
2019-01-31T00:31:01.146Z,1.63
2019-01-31T00:34:09.761Z,1.27
2019-01-31T00:36:59.101Z,1.30
2019-01-31T00:40:06.238Z,1.17
2019-01-31T00:43:15.521Z,1.13
2019-01-31T00:46:22.699Z,1.27
2019-01-31T00:49:31.406Z,1.30
2019-01-31T00:52:11.800Z,1.10
2019-01-31T00:54:52.113Z,1.90
2019-01-31T00:57:32.742Z,1.37
2019-01-31T01:00:13.069Z,1.17
2019-01-31T01:02:53.860Z,1.23
2019-01-31T01:05:34.909Z,1.70
2019-01-31T01:11:50.841Z,1.33
2019-01-31T01:14:31.962Z,1.20
2019-01-31T01:17:12.236Z,1.30
2019-01-31T01:19:52.676Z,0.97
2019-01-31T01:22:33.719Z,2.50
2019-01-31T01:25:14.021Z,0.90
2019-01-31T01:27:54.548Z,1.30
2019-01-31T01:30:35.564Z,1.57
2019-01-31T01:33:15.998Z,0.82
2019-01-31T01:35:56.556Z,0.97
2019-01-31T01:38:37.705Z,0.90
2019-01-31T01:41:18.185Z,1.10
2019-01-31T01:43:58.946Z,1.73
2019-01-31T01:46:40.113Z,8.37
2019-01-31T01:49:20.958Z,3.00
2019-01-31T01:52:01.875Z,3.43
2019-01-31T01:54:42.385Z,3.30
2019-01-31T01:57:22.944Z,1.60
2019-01-31T02:00:04.129Z,1.77
2019-01-31T02:02:44.790Z,1.47
2019-01-31T02:05:25.378Z,1.27
2019-01-31T02:08:05.925Z,1.27
2019-01-31T02:10:52.626Z,0.93
2019-01-31T02:13:59.748Z,1.10
2019-01-31T02:17:06.960Z,1.90
2019-01-31T02:20:14.088Z,1.73
2019-01-31T02:23:21.427Z,1.17
2019-01-31T02:30:14.049Z,1.10
2019-01-31T02:33:21.213Z,1.70
2019-01-31T02:36:29.836Z,1.03
2019-01-31T02:39:43.138Z,0.95
2019-01-31T02:42:45.828Z,1.60
2019-01-31T02:45:22.592Z,1.42
2019-01-31T02:48:29.747Z,1.20
2019-01-31T02:51:36.861Z,1.80
2019-01-31T02:54:17.805Z,1.80
2019-01-31T02:56:58.495Z,1.53
2019-01-31T02:59:39.521Z,1.83
2019-01-31T03:02:19.885Z,1.47
2019-01-31T03:05:00.490Z,1.27
2019-01-31T03:07:42.809Z,1.47
2019-01-31T03:10:23.266Z,1.30
2019-01-31T03:13:04.376Z,1.50
2019-01-31T03:15:45.487Z,1.60
2019-01-31T03:18:26.353Z,1.67
2019-01-31T03:21:06.670Z,1.90
2019-01-31T03:24:13.885Z,1.10
2019-01-31T03:27:21.112Z,1.70
2019-01-31T03:30:28.270Z,1.87
2019-01-31T03:33:35.394Z,1.67
2019-01-31T03:36:42.618Z,1.67
2019-01-31T03:39:51.308Z,1.87
2019-01-31T03:42:59.920Z,1.53
2019-01-31T03:45:40.683Z,1.63
2019-01-31T03:48:21.650Z,1.80
2019-01-31T04:22:04.903Z,1.80
2019-01-31T05:51:53.804Z,2.00
2019-01-31T05:54:22.392Z,1.73
2019-01-31T05:56:50.954Z,1.50
2019-01-31T05:59:19.554Z,1.52
2019-01-31T06:01:48.025Z,1.15
2019-01-31T06:04:16.524Z,1.60
2019-01-31T06:06:45.052Z,1.60
2019-01-31T06:09:13.636Z,1.60
2019-01-31T06:11:42.093Z,4.33
2019-01-31T06:14:10.657Z,3.27
2019-01-31T06:16:39.144Z,2.80
2019-01-31T06:19:07.633Z,1.77
2019-01-31T06:21:36.111Z,2.10
2019-01-31T06:24:05.571Z,2.20
2019-01-31T06:26:34.027Z,2.07
2019-01-31T06:29:02.588Z,2.00
2019-01-31T06:31:31.111Z,2.17
2019-01-31T06:33:59.607Z,2.20
2019-01-31T06:36:28.162Z,1.75
2019-01-31T06:38:56.665Z,1.80
2019-01-31T06:41:25.188Z,2.00
2019-01-31T06:43:53.679Z,1.87
2019-01-31T06:46:22.122Z,2.27
2019-01-31T06:48:50.685Z,1.60
2019-01-31T06:51:19.163Z,1.65
2019-01-31T06:53:47.672Z,1.93
2019-01-31T06:56:16.160Z,1.92
2019-01-31T06:58:44.640Z,1.57
2019-01-31T07:01:13.105Z,1.17
2019-01-31T07:03:41.657Z,1.57
2019-01-31T07:06:10.150Z,1.50
2019-01-31T07:08:38.609Z,3.83
2019-01-31T07:11:07.149Z,5.78
2019-01-31T07:13:35.734Z,5.53
2019-01-31T07:16:04.426Z,5.00
2019-01-31T07:18:33.013Z,5.47
2019-01-31T07:21:01.608Z,3.65
2019-01-31T07:23:30.361Z,2.53
2019-01-31T07:25:58.945Z,2.00
2019-01-31T07:28:27.447Z,2.20
2019-01-31T07:30:55.912Z,1.90
2019-01-31T07:33:24.687Z,2.77
2019-01-31T07:35:53.281Z,1.43
2019-01-31T07:38:21.841Z,2.27
2019-01-31T07:40:52.778Z,2.70
2019-01-31T07:43:21.690Z,6.30
2019-01-31T07:45:50.276Z,10.30
2019-01-31T07:48:18.826Z,6.53
2019-01-31T07:50:47.385Z,8.60
2019-01-31T07:53:15.996Z,4.92
2019-01-31T07:55:44.488Z,11.65
2019-01-31T07:58:13.037Z,18.00
2019-01-31T08:00:41.629Z,16.07
2019-01-31T08:03:10.275Z,19.00
2019-01-31T08:05:38.808Z,11.63
2019-01-31T08:08:07.453Z,8.57
2019-01-31T08:10:38.702Z,5.20
2019-01-31T08:13:07.326Z,4.90
2019-01-31T08:15:35.976Z,2.97
2019-01-31T08:18:05.011Z,2.23
2019-01-31T08:20:33.587Z,2.83
2019-01-31T08:23:02.128Z,2.60
2019-01-31T08:25:31.865Z,2.47
2019-01-31T08:28:00.479Z,2.60
2019-01-31T08:30:42.978Z,3.03
2019-01-31T08:33:11.560Z,2.60
2019-01-31T08:35:40.143Z,1.93
2019-01-31T08:38:08.705Z,2.13
2019-01-31T08:40:37.245Z,1.80
2019-01-31T08:43:05.768Z,2.40
2019-01-31T08:45:34.252Z,2.20
2019-01-31T08:48:02.708Z,2.30
2019-01-31T08:50:31.605Z,2.07
2019-01-31T08:53:00.287Z,3.23
2019-01-31T08:55:28.752Z,3.17
2019-01-31T08:57:57.265Z,2.60
2019-01-31T09:00:28.252Z,1.80
2019-01-31T09:02:56.780Z,2.00
2019-01-31T09:05:25.334Z,2.53
2019-01-31T09:07:54.042Z,2.30
2019-01-31T09:10:34.531Z,1.50
2019-01-31T09:13:04.724Z,2.00
2019-01-31T09:15:33.474Z,1.47
2019-01-31T09:18:02.000Z,1.37
2019-01-31T09:20:42.144Z,1.20
2019-01-31T09:23:29.971Z,1.20
2019-01-31T09:26:04.162Z,1.30
2019-01-31T09:29:01.293Z,1.62
2019-01-31T09:31:38.841Z,1.30
2019-01-31T09:34:36.002Z,1.57
2019-01-31T09:37:19.241Z,1.90
2019-01-31T09:40:05.431Z,2.50
2019-01-31T09:42:42.713Z,2.10
2019-01-31T09:45:22.950Z,2.17
2019-01-31T09:47:54.509Z,1.93
2019-01-31T09:50:46.304Z,2.50
2019-01-31T09:53:29.710Z,3.13
2019-01-31T09:56:22.326Z,2.93
2019-01-31T09:58:56.667Z,3.03
2019-01-31T10:01:39.658Z,2.27
2019-01-31T10:04:19.979Z,3.20
2019-01-31T10:06:57.260Z,3.20
2019-01-31T10:09:37.386Z,3.10
2019-01-31T10:12:17.654Z,2.03
2019-01-31T10:14:49.256Z,2.60
2019-01-31T10:17:53.895Z,2.90
2019-01-31T10:20:40.845Z,3.55
2019-01-31T10:23:27.416Z,4.37
2019-01-31T10:26:07.749Z,4.13
2019-01-31T10:28:54.242Z,5.30
2019-01-31T10:31:26.738Z,2.83
2019-01-31T10:34:07.293Z,3.53
2019-01-31T10:36:47.894Z,2.60
2019-01-31T10:39:36.034Z,2.60
2019-01-31T10:42:31.715Z,2.80
2019-01-31T10:45:34.774Z,2.47
2019-01-31T10:48:18.202Z,3.07
2019-01-31T10:50:58.754Z,2.65
2019-01-31T10:53:42.242Z,2.50
2019-01-31T10:56:37.621Z,2.10
2019-01-31T10:59:18.101Z,2.37
2019-01-31T11:02:01.301Z,3.00
2019-01-31T11:04:35.767Z,2.37
2019-01-31T11:07:23.795Z,3.90
2019-01-31T11:10:19.408Z,2.73
2019-01-31T11:13:07.452Z,3.10
2019-01-31T11:15:44.563Z,2.10
2019-01-31T11:18:32.462Z,2.53
2019-01-31T11:21:23.150Z,2.87
2019-01-31T11:23:57.696Z,2.30
2019-01-31T11:26:45.849Z,2.00
2019-01-31T11:29:38.272Z,3.10
2019-01-31T11:32:24.745Z,2.93
2019-01-31T11:35:15.607Z,2.57
2019-01-31T11:38:04.912Z,3.20
2019-01-31T11:40:53.750Z,2.98
2019-01-31T11:43:25.355Z,3.67
2019-01-31T11:46:11.367Z,5.03
2019-01-31T11:48:48.850Z,5.63
2019-01-31T11:51:41.159Z,6.67
2019-01-31T11:54:18.611Z,3.13
2019-01-31T11:57:24.817Z,2.43
2019-01-31T11:59:53.458Z,1.90
2019-01-31T12:02:21.984Z,2.90
2019-01-31T12:04:50.496Z,2.80
2019-01-31T12:07:18.948Z,3.27
2019-01-31T12:09:47.399Z,2.80
2019-01-31T12:12:15.876Z,2.77
2019-01-31T12:14:44.326Z,2.33
2019-01-31T12:17:12.876Z,2.77
2019-01-31T12:19:41.440Z,2.80
2019-01-31T12:22:10.056Z,2.87
2019-01-31T12:24:38.582Z,2.50
2019-01-31T12:27:07.132Z,2.77
2019-01-31T12:29:35.627Z,2.20
2019-01-31T12:32:04.181Z,2.40
2019-01-31T12:34:32.644Z,2.03
2019-01-31T12:37:01.140Z,2.13
2019-01-31T12:39:29.711Z,2.23
2019-01-31T12:41:58.172Z,2.10
2019-01-31T12:44:26.727Z,2.70
2019-01-31T12:46:55.171Z,2.20
2019-01-31T12:49:23.649Z,2.90
2019-01-31T12:51:52.183Z,2.20
2019-01-31T12:54:20.788Z,2.15
2019-01-31T12:56:49.261Z,2.40
2019-01-31T12:59:17.807Z,2.10
2019-01-31T13:01:46.294Z,2.83
2019-01-31T13:04:14.911Z,3.50
2019-01-31T13:06:43.376Z,2.53
2019-01-31T13:09:12.009Z,2.75
2019-01-31T13:11:40.601Z,2.67
2019-01-31T13:14:09.270Z,2.20
2019-01-31T13:16:37.866Z,2.12
2019-01-31T13:19:06.381Z,2.30
2019-01-31T13:21:34.865Z,2.20
2019-01-31T13:24:03.649Z,2.50
2019-01-31T13:26:32.245Z,3.00
2019-01-31T13:29:01.123Z,2.40
2019-01-31T13:31:29.629Z,2.90
2019-01-31T13:33:58.150Z,2.17
2019-01-31T13:36:26.655Z,2.13
2019-01-31T13:38:55.525Z,2.80
2019-01-31T13:41:24.052Z,2.40
2019-01-31T13:43:57.747Z,2.05
2019-01-31T13:46:22.940Z,2.30
2019-01-31T13:48:51.454Z,2.17
2019-01-31T13:51:20.084Z,3.10
2019-01-31T13:53:48.697Z,2.90
2019-01-31T13:56:17.145Z,2.43
2019-01-31T13:58:45.627Z,2.53
2019-01-31T14:01:14.069Z,3.20
2019-01-31T14:03:42.601Z,3.73
2019-01-31T14:06:11.149Z,2.67
2019-01-31T14:08:39.595Z,2.27
2019-01-31T14:11:08.278Z,1.90
2019-01-31T14:13:36.757Z,3.00
2019-01-31T14:16:05.331Z,3.07
2019-01-31T14:18:33.959Z,2.62
2019-01-31T14:21:02.481Z,2.20
2019-01-31T14:23:30.950Z,2.33
2019-01-31T14:25:59.426Z,2.37
2019-01-31T14:28:27.874Z,2.10
2019-01-31T14:30:56.368Z,2.20
2019-01-31T14:33:25.077Z,2.67
2019-01-31T14:35:53.632Z,2.35
2019-01-31T14:38:22.113Z,2.00
2019-01-31T14:40:50.585Z,2.40
2019-01-31T14:43:19.100Z,2.25
2019-01-31T14:45:47.644Z,2.43
2019-01-31T14:48:16.104Z,1.90
2019-01-31T14:50:44.797Z,2.77
2019-01-31T14:53:13.278Z,2.10
2019-01-31T14:55:41.769Z,2.20
2019-01-31T14:58:10.564Z,2.20
2019-01-31T15:00:39.318Z,2.15
2019-01-31T15:03:07.811Z,2.02
2019-01-31T15:05:36.901Z,1.77
2019-01-31T15:08:06.139Z,2.10
2019-01-31T15:10:34.813Z,1.77
2019-01-31T15:13:03.341Z,2.40
2019-01-31T15:15:31.899Z,1.90
2019-01-31T15:18:00.555Z,2.40
2019-01-31T15:20:38.390Z,1.97
2019-01-31T15:23:07.287Z,2.77
2019-01-31T15:25:35.911Z,2.40
2019-01-31T15:28:04.522Z,2.00
2019-01-31T15:30:36.907Z,2.20
2019-01-31T15:33:08.141Z,1.95
2019-01-31T15:35:36.660Z,2.47
2019-01-31T15:38:05.576Z,3.20
2019-01-31T15:40:40.317Z,4.12
2019-01-31T15:43:08.870Z,4.13
2019-01-31T15:45:37.326Z,3.70
2019-01-31T15:48:06.497Z,2.67
2019-01-31T15:50:35.153Z,3.20
2019-01-31T15:53:04.059Z,3.30
2019-01-31T15:55:32.750Z,4.67
2019-01-31T15:58:01.286Z,5.10
2019-01-31T16:00:36.934Z,5.87
2019-01-31T16:03:06.849Z,4.10
2019-01-31T16:05:35.406Z,4.47
2019-01-31T16:08:04.558Z,6.33
2019-01-31T16:10:33.148Z,6.23
2019-01-31T16:13:01.899Z,5.07
2019-01-31T16:15:30.488Z,5.63
2019-01-31T16:17:59.034Z,5.20
2019-01-31T16:20:27.629Z,4.70
2019-01-31T16:22:56.256Z,4.37
2019-01-31T16:25:24.838Z,4.93
2019-01-31T16:27:53.424Z,4.20
2019-01-31T16:30:23.316Z,4.70
2019-01-31T16:32:51.906Z,5.93
2019-01-31T16:35:20.435Z,8.40
2019-01-31T16:37:50.180Z,6.70
2019-01-31T16:40:19.386Z,7.90
2019-01-31T16:42:47.906Z,8.23
2019-01-31T16:45:17.504Z,8.63
2019-01-31T16:47:46.811Z,11.85
2019-01-31T16:50:20.480Z,12.83
2019-01-31T16:52:49.062Z,13.43
2019-01-31T16:55:19.859Z,14.80
2019-01-31T16:57:48.448Z,15.03
2019-01-31T17:00:19.653Z,14.10
2019-01-31T17:02:48.392Z,15.23
2019-01-31T17:05:19.124Z,15.18
2019-01-31T17:07:47.998Z,13.87
2019-01-31T17:10:16.636Z,16.27
2019-01-31T17:12:45.231Z,16.87
2019-01-31T17:15:18.661Z,12.93
2019-01-31T17:17:47.273Z,9.47
2019-01-31T17:20:24.636Z,6.65
2019-01-31T17:22:53.243Z,8.33
2019-01-31T17:25:21.839Z,7.30
2019-01-31T17:27:50.413Z,7.23
2019-01-31T17:30:21.154Z,5.60
2019-01-31T17:32:49.668Z,5.03
2019-01-31T17:35:18.157Z,5.30
2019-01-31T17:37:46.772Z,5.40
2019-01-31T17:40:24.117Z,5.00
2019-01-31T17:42:52.676Z,3.33
2019-01-31T17:45:30.072Z,5.10
2019-01-31T17:47:52.340Z,4.87
2019-01-31T17:50:20.942Z,4.30
2019-01-31T17:52:49.529Z,4.00
2019-01-31T17:55:20.349Z,4.78
2019-01-31T17:57:48.864Z,5.05
2019-01-31T18:00:36.151Z,6.37
2019-01-31T18:03:05.991Z,5.62
2019-01-31T18:05:34.538Z,8.37
2019-01-31T18:08:03.067Z,7.07
2019-01-31T18:10:31.540Z,6.27
2019-01-31T18:13:00.224Z,39.95
2019-01-31T18:15:28.991Z,30.40
2019-01-31T18:17:57.535Z,13.67
2019-01-31T18:20:26.209Z,10.87
2019-01-31T18:22:54.812Z,8.40
2019-01-31T18:25:23.288Z,10.43
2019-01-31T18:27:53.288Z,7.30
2019-01-31T18:30:24.453Z,7.50
2019-01-31T18:32:53.039Z,6.80
2019-01-31T18:35:21.723Z,6.08
2019-01-31T18:37:50.317Z,6.77
2019-01-31T18:40:21.956Z,9.03
2019-01-31T18:42:50.493Z,8.00
2019-01-31T18:45:21.363Z,6.17
2019-01-31T18:47:49.922Z,9.53
2019-01-31T18:50:23.689Z,21.45
2019-01-31T18:52:52.427Z,28.63
2019-01-31T18:55:20.989Z,25.37
2019-01-31T18:57:49.502Z,23.37
2019-01-31T19:00:34.822Z,15.05
2019-01-31T19:03:03.488Z,35.68
2019-01-31T19:05:32.106Z,32.90
2019-01-31T19:08:00.670Z,32.60
2019-01-31T19:10:29.300Z,16.57
2019-01-31T19:12:57.864Z,13.90
2019-01-31T19:15:27.726Z,8.17
2019-01-31T19:18:05.372Z,13.60
2019-01-31T19:20:31.408Z,13.83
2019-01-31T19:23:01.809Z,14.13
2019-01-31T19:25:32.320Z,10.45
2019-01-31T19:28:01.079Z,8.77
2019-01-31T19:30:37.188Z,10.00
2019-01-31T19:33:06.697Z,7.40
2019-01-31T19:35:35.425Z,6.50
2019-01-31T19:38:05.129Z,6.47
2019-01-31T19:40:35.830Z,6.40
2019-01-31T19:43:04.899Z,5.77
2019-01-31T19:45:38.908Z,4.00
2019-01-31T19:48:07.831Z,4.23
2019-01-31T19:50:36.485Z,3.80
2019-01-31T19:53:05.600Z,3.17
2019-01-31T19:55:34.501Z,4.43
2019-01-31T19:58:03.142Z,4.07
2019-01-31T20:00:31.816Z,3.77
2019-01-31T20:03:00.408Z,3.77
2019-01-31T20:05:29.094Z,3.07
2019-01-31T20:07:58.370Z,3.30
2019-01-31T20:10:31.587Z,3.77
2019-01-31T20:13:00.796Z,3.63
2019-01-31T20:15:29.758Z,3.43
2019-01-31T20:17:58.942Z,3.10
2019-01-31T20:20:29.080Z,4.17
2019-01-31T20:22:58.529Z,3.17
2019-01-31T20:25:28.133Z,2.83
2019-01-31T20:27:56.633Z,3.43
2019-01-31T20:30:26.933Z,3.03
2019-01-31T20:32:55.837Z,3.13
2019-01-31T20:35:24.664Z,2.67
2019-01-31T20:37:53.246Z,2.80
2019-01-31T20:40:24.790Z,3.03
2019-01-31T20:42:53.513Z,3.10
2019-01-31T20:45:22.215Z,3.25
2019-01-31T20:47:50.915Z,3.10
2019-01-31T20:50:25.356Z,4.03
2019-01-31T20:52:53.960Z,3.00
2019-01-31T20:55:22.618Z,3.30
2019-01-31T20:57:51.204Z,2.90
2019-01-31T21:00:30.133Z,2.93
2019-01-31T21:02:58.746Z,3.40
2019-01-31T21:05:27.448Z,6.20
2019-01-31T21:07:56.193Z,18.37
2019-01-31T21:10:26.559Z,8.10
2019-01-31T21:12:55.229Z,6.07
2019-01-31T21:15:25.135Z,4.70
2019-01-31T21:17:53.860Z,3.27
2019-01-31T21:20:26.212Z,4.30
2019-01-31T21:22:54.578Z,3.50
2019-01-31T21:25:23.142Z,3.30
2019-01-31T21:27:51.685Z,3.97
2019-01-31T21:30:23.226Z,5.78
2019-01-31T21:32:51.790Z,5.73
2019-01-31T21:35:21.186Z,5.97
2019-01-31T21:37:49.813Z,5.70
2019-01-31T21:40:20.133Z,5.70
2019-01-31T21:42:48.836Z,4.60
2019-01-31T21:45:21.215Z,4.73
2019-01-31T21:47:49.681Z,4.37
2019-01-31T21:50:20.741Z,3.33
2019-01-31T21:52:49.375Z,2.57
2019-01-31T21:55:17.963Z,2.93
2019-01-31T21:57:46.683Z,2.40
2019-01-31T22:00:18.042Z,2.20
2019-01-31T22:02:46.592Z,2.63
2019-01-31T22:05:16.381Z,2.25
2019-01-31T22:07:45.083Z,2.43
2019-01-31T22:10:18.375Z,2.67
2019-01-31T22:12:46.124Z,2.20
2019-01-31T22:15:17.682Z,2.37
2019-01-31T22:17:46.231Z,2.87
2019-01-31T22:20:14.884Z,2.23
2019-01-31T22:22:43.368Z,3.07
2019-01-31T22:25:14.624Z,2.60
2019-01-31T22:27:43.253Z,1.73
2019-01-31T22:30:14.789Z,2.00
2019-01-31T22:32:43.260Z,1.50
2019-01-31T22:35:11.862Z,1.65
2019-01-31T22:37:40.455Z,1.70
2019-01-31T22:40:12.084Z,2.47
2019-01-31T22:42:40.540Z,1.80
2019-01-31T22:45:17.672Z,1.17
2019-01-31T22:47:46.139Z,0.90
2019-01-31T22:53:07.300Z,0.90
2019-01-31T22:55:35.821Z,1.00
2019-01-31T22:58:23.641Z,1.13
2019-01-31T23:04:22.229Z,1.30
2019-01-31T23:07:10.151Z,1.30
2019-01-31T23:13:04.972Z,1.37
2019-01-31T23:15:52.809Z,1.07
2019-01-31T23:18:40.681Z,1.05
2019-01-31T23:21:28.510Z,1.00
2019-01-31T23:24:16.310Z,1.03
2019-01-31T23:27:04.502Z,1.50
2019-01-31T23:29:52.390Z,1.27
2019-01-31T23:32:40.220Z,1.30
2019-01-31T23:35:28.020Z,1.10
2019-01-31T23:38:15.856Z,0.60
2019-01-31T23:41:03.806Z,0.85
2019-01-31T23:43:51.646Z,1.00
2019-01-31T23:46:39.441Z,0.77
2019-01-31T23:49:27.266Z,1.80
2019-01-31T23:52:15.102Z,2.40
2019-01-31T23:55:02.893Z,1.60
2019-01-31T23:57:50.719Z,1.33
